Terminal Aerodrome Forecast
Issued by NWS Charleston, WV

Current Version | Previous Version | Text Only | Print | Product List | Glossary Off
Versions: 1 2 3 4 5 6 7 8 9 10 11 12 13 14 15 16 17 18 19 20 21 22 23 24 25 26

981
FTUS41 KRLX 261914 AAA
TAFCRW
TAF AMD
KCRW 261914Z 2619/2718 29010G20KT P6SM VCTS SCT040CB BKN070 BKN100
     FM262200 09009KT P6SM BKN040 OVC100
     FM270200 28004KT P6SM SCT010
     FM271700 24006KT P6SM SKC=

USA.gov is the U.S. government's official web portal to all federal, state and local government web resources and services.